Terminal Aerodrome Forecast
Issued by NWS

Home | Current Version | Previous Version | Text Only | Print | Product List | Glossary On
Versions: 1 2 3 4 5 6 7 8 9 10 11 12
000
FTUS43 KGLD 181136
TAFMCK
TAF
KMCK 181136Z 1812/1912 25009KT P6SM SKC
     FM181400 30010KT P6SM FEW250 WS020/34035KT
     FM181600 32012KT P6SM SKC
     FM181700 35015G23KT P6SM SKC
     FM181800 02018G26KT P6SM SKC
     FM182100 03011KT P6SM SKC=

USA.gov is the U.S. government's official web portal to all federal, state and local government web resources and services.